Time;durP1;ratioP1;P1;durP2;ratioP2;P2;SDS_P1;SDS_P2;PMS_P1;PMS_P2;Temp;Humidity;BMP_temperature;BMP_pressure;BME280_temperature;BME280_humidity;BME280_pressure;Samples;Min_cycle;Max_cycle;Signal;HPM_P1;HPM_P2
2022/06/27 00:01:03;;;;;;;4.20;3.90;;;20.20;99.90;;;;;;4896130;29;20624;-80
2022/06/27 00:03:30;;;;;;;4.00;3.70;;;20.20;99.90;;;;;;4879174;29;20716;-80
2022/06/27 00:05:57;;;;;;;4.10;3.70;;;20.20;99.90;;;;;;4879628;29;20207;-80
2022/06/27 00:08:24;;;;;;;4.70;4.30;;;20.20;99.90;;;;;;4879435;29;20214;-80
2022/06/27 00:10:51;;;;;;;4.17;3.87;;;20.10;99.90;;;;;;4879206;29;20709;-79
2022/06/27 00:13:19;;;;;;;4.30;4.00;;;20.00;99.90;;;;;;4879049;29;20291;-80
2022/06/27 00:15:46;;;;;;;8.83;4.50;;;20.00;99.90;;;;;;4913152;29;20218;-79
2022/06/27 00:18:12;;;;;;;4.80;4.50;;;20.00;99.90;;;;;;4882722;29;20267;-80
2022/06/27 00:20:39;;;;;;;4.53;4.23;;;20.00;99.90;;;;;;4899765;29;20735;-79
2022/06/27 00:23:06;;;;;;;4.37;4.07;;;20.10;99.90;;;;;;4899327;29;20219;-80
2022/06/27 00:25:33;;;;;;;4.63;4.17;;;20.00;99.90;;;;;;4899565;29;20215;-79
2022/06/27 00:28:00;;;;;;;5.00;4.50;;;20.00;99.90;;;;;;4882370;29;20210;-79
2022/06/27 00:30:28;;;;;;;5.40;5.00;;;20.10;99.90;;;;;;4882449;29;20782;-80
2022/06/27 00:32:55;;;;;;;5.50;5.00;;;20.00;99.90;;;;;;4899299;29;20283;-80
2022/06/27 00:35:22;;;;;;;5.43;5.03;;;20.00;99.90;;;;;;4913696;29;20206;-80
2022/06/27 00:37:49;;;;;;;6.43;5.53;;;19.90;99.90;;;;;;4882662;29;20656;-80
2022/06/27 00:40:15;;;;;;;5.87;4.97;;;19.90;99.90;;;;;;4882381;29;20205;-80
2022/06/27 00:42:42;;;;;;;5.73;5.23;;;19.80;99.90;;;;;;4882297;29;20729;-80
2022/06/27 00:45:11;;;;;;;6.27;5.77;;;19.80;99.90;;;;;;4874767;29;20205;-80
2022/06/27 00:47:39;;;;;;;6.40;5.80;;;19.70;99.90;;;;;;4875917;29;20595;-80
2022/06/27 00:50:08;;;;;;;7.93;7.13;;;19.60;99.90;;;;;;4881800;29;20228;-80
2022/06/27 00:52:35;;;;;;;10.23;9.43;;;19.40;99.90;;;;;;4899083;29;20234;-81
2022/06/27 00:55:02;;;;;;;13.00;12.20;;;19.10;99.90;;;;;;4913162;29;20628;-80
2022/06/27 00:57:29;;;;;;;13.00;12.03;;;18.70;99.90;;;;;;4882399;29;20256;-79
2022/06/27 00:59:56;;;;;;;13.00;12.20;;;18.60;99.90;;;;;;4882198;29;20200;-80
2022/06/27 01:02:23;;;;;;;12.27;11.37;;;18.40;99.90;;;;;;4881845;29;20313;-80
2022/06/27 01:04:51;;;;;;;12.50;11.70;;;18.20;99.90;;;;;;4884522;29;20204;-79
2022/06/27 01:07:18;;;;;;;12.77;11.97;;;18.20;99.90;;;;;;4882072;29;20275;-80
2022/06/27 01:09:45;;;;;;;11.30;10.60;;;18.10;99.90;;;;;;4898866;29;20205;-79
2022/06/27 01:12:12;;;;;;;11.50;10.80;;;18.00;99.90;;;;;;4898500;29;20227;-79
2022/06/27 01:14:39;;;;;;;12.90;12.10;;;18.00;99.90;;;;;;4881755;29;20203;-80
2022/06/27 01:17:06;;;;;;;11.77;11.07;;;18.00;99.90;;;;;;4881730;29;20740;-79
2022/06/27 01:19:33;;;;;;;11.73;10.87;;;18.00;99.90;;;;;;4881810;29;20307;-79
2022/06/27 01:22:08;;;;;;;10.70;10.10;;;18.00;99.90;;;;;;4898489;29;20577;-79
2022/06/27 01:24:35;;;;;;;10.87;10.27;;;18.10;99.90;;;;;;4881529;29;20214;-80
2022/06/27 01:27:06;;;;;;;11.37;10.60;;;18.00;99.90;;;;;;4879225;29;20246;-79
2022/06/27 01:29:33;;;;;;;11.57;10.83;;;17.90;99.90;;;;;;4880634;29;20232;-80
2022/06/27 01:32:00;;;;;;;11.90;11.20;;;17.90;99.90;;;;;;4911793;29;20286;-80
2022/06/27 01:34:31;;;;;;;11.37;10.70;;;17.80;99.90;;;;;;4881121;29;20260;-79
2022/06/27 01:36:59;;;;;;;11.30;10.40;;;17.70;99.90;;;;;;4881549;29;20206;-80
2022/06/27 01:39:28;;;;;;;11.63;10.90;;;17.60;99.90;;;;;;4881583;29;20196;-80
2022/06/27 01:42:00;;;;;;;11.30;10.60;;;17.60;99.90;;;;;;4881373;29;20236;-80
2022/06/27 01:44:29;;;;;;;11.00;10.33;;;17.60;99.90;;;;;;4881051;29;20200;-80
2022/06/27 01:47:01;;;;;;;11.10;10.40;;;17.50;99.90;;;;;;4881184;29;20203;-79
2022/06/27 01:49:30;;;;;;;11.37;10.63;;;17.50;99.90;;;;;;4886498;29;20203;-80
2022/06/27 01:51:58;;;;;;;10.97;10.30;;;17.40;99.90;;;;;;4912361;29;20302;-80
2022/06/27 01:54:26;;;;;;;11.30;10.60;;;17.40;99.90;;;;;;4897709;29;20203;-80
2022/06/27 01:56:54;;;;;;;11.47;10.77;;;17.30;99.90;;;;;;4880811;29;20228;-80
2022/06/27 01:59:23;;;;;;;11.10;10.40;;;17.40;99.90;;;;;;4881095;29;20338;-80
2022/06/27 02:01:55;;;;;;;10.87;10.17;;;17.40;99.90;;;;;;4880953;29;20210;-80
2022/06/27 02:04:22;;;;;;;10.60;10.00;;;17.40;99.90;;;;;;4881210;29;20229;-79
2022/06/27 02:06:50;;;;;;;10.73;10.03;;;17.40;99.90;;;;;;4880663;29;20209;-79
2022/06/27 02:09:17;;;;;;;10.80;10.20;;;17.40;99.90;;;;;;4877671;29;20202;-79
2022/06/27 02:11:49;;;;;;;11.40;10.70;;;17.40;99.90;;;;;;4877557;29;20279;-80
2022/06/27 02:14:16;;;;;;;10.87;10.27;;;17.30;99.90;;;;;;4880634;29;20588;-80
2022/06/27 02:16:44;;;;;;;11.77;11.07;;;17.30;99.90;;;;;;4912111;29;20201;-80
2022/06/27 02:19:13;;;;;;;11.23;10.53;;;17.30;99.90;;;;;;4880773;29;20198;-79
2022/06/27 02:21:41;;;;;;;11.03;10.30;;;17.20;99.90;;;;;;4896774;29;20200;-79
2022/06/27 02:24:09;;;;;;;11.00;10.40;;;17.20;99.90;;;;;;4880419;29;20219;-79
2022/06/27 02:26:37;;;;;;;11.43;10.73;;;17.20;99.90;;;;;;4880550;29;20208;-79
2022/06/27 02:29:05;;;;;;;10.60;10.00;;;17.30;99.90;;;;;;4897542;29;20200;-79
2022/06/27 02:31:33;;;;;;;11.33;10.60;;;17.30;99.90;;;;;;4897212;29;20208;-79
2022/06/27 02:34:00;;;;;;;11.30;10.60;;;17.20;99.90;;;;;;4897090;29;20267;-80
2022/06/27 02:36:30;;;;;;;10.90;10.23;;;17.20;99.90;;;;;;4877257;29;20585;-80
2022/06/27 02:39:00;;;;;;;10.73;10.13;;;17.10;99.90;;;;;;4879124;29;20587;-80
2022/06/27 02:41:29;;;;;;;10.67;10.07;;;17.20;99.90;;;;;;4880442;29;20216;-80
2022/06/27 02:44:02;;;;;;;11.33;10.63;;;17.30;99.90;;;;;;4880201;29;20251;-80
2022/06/27 02:46:31;;;;;;;11.20;10.50;;;17.30;99.90;;;;;;4877253;29;20666;-79
2022/06/27 02:49:00;;;;;;;11.27;10.57;;;17.30;99.90;;;;;;4878443;29;20641;-80
2022/06/27 02:51:31;;;;;;;11.67;11.07;;;17.40;99.90;;;;;;4880218;29;20598;-80
2022/06/27 02:54:03;;;;;;;11.60;10.90;;;17.40;99.90;;;;;;4896773;29;20223;-80
2022/06/27 02:56:58;;;;;;;11.30;10.70;;;17.40;99.90;;;;;;4873734;29;20633;-80
2022/06/27 02:59:32;;;;;;;11.10;10.50;;;17.50;99.90;;;;;;4875388;29;20198;-81
2022/06/27 03:02:00;;;;;;;11.83;11.23;;;17.50;99.90;;;;;;4877625;29;20258;-81
2022/06/27 03:04:48;;;;;;;12.20;11.50;;;17.50;99.90;;;;;;4892223;29;20235;-82
2022/06/27 03:07:14;;;;;;;11.30;10.70;;;17.50;99.90;;;;;;4879550;29;20215;-83
2022/06/27 03:09:41;;;;;;;11.70;11.10;;;17.50;99.90;;;;;;4910872;29;20333;-82
2022/06/27 03:12:09;;;;;;;12.20;11.50;;;17.40;99.90;;;;;;4879686;29;20248;-82
2022/06/27 03:14:38;;;;;;;11.63;11.03;;;17.30;99.90;;;;;;4879360;29;20211;-81
2022/06/27 03:17:07;;;;;;;12.47;11.67;;;17.30;99.90;;;;;;4887231;29;20256;-83
2022/06/27 03:19:50;;;;;;;12.50;11.80;;;17.30;99.90;;;;;;4877844;29;20687;-81
2022/06/27 03:22:35;;;;;;;12.63;11.97;;;17.30;99.90;;;;;;4883998;29;20252;-80
2022/06/27 03:25:03;;;;;;;12.97;12.20;;;17.30;99.90;;;;;;4880964;29;20200;-87
2022/06/27 03:27:29;;;;;;;12.80;12.10;;;17.30;99.90;;;;;;4880049;29;20214;-80
2022/06/27 03:29:57;;;;;;;12.97;12.27;;;17.30;99.90;;;;;;4881281;29;20205;-80
2022/06/27 03:32:25;;;;;;;12.50;11.80;;;17.30;99.90;;;;;;4881264;29;20310;-80
2022/06/27 03:35:02;;;;;;;12.10;11.50;;;17.30;99.90;;;;;;4881181;29;20203;-80
2022/06/27 03:37:32;;;;;;;12.40;11.67;;;17.30;99.90;;;;;;4881165;29;20208;-80
2022/06/27 03:39:59;;;;;;;12.40;11.70;;;17.30;99.90;;;;;;4881240;29;20204;-80
2022/06/27 03:42:26;;;;;;;12.60;11.90;;;17.30;99.90;;;;;;4881207;29;20318;-80
2022/06/27 03:44:54;;;;;;;13.00;12.20;;;17.40;99.90;;;;;;4898309;29;20574;-80
2022/06/27 03:47:21;;;;;;;12.50;11.80;;;17.30;99.90;;;;;;4881583;29;20209;-80
2022/06/27 03:50:08;;;;;;;12.97;12.27;;;17.40;99.90;;;;;;4900372;29;20213;-80
2022/06/27 03:52:36;;;;;;;12.70;12.00;;;17.40;99.90;;;;;;4884343;29;20236;-80
2022/06/27 03:55:03;;;;;;;12.80;12.10;;;17.30;99.90;;;;;;4885183;29;20501;-80
2022/06/27 03:57:31;;;;;;;12.90;12.20;;;17.30;99.90;;;;;;4917146;29;20297;-80
2022/06/27 03:59:57;;;;;;;13.20;12.50;;;17.30;99.90;;;;;;4884957;29;20303;-80
2022/06/27 04:02:27;;;;;;;13.10;12.40;;;17.40;99.90;;;;;;4884925;29;20252;-80
2022/06/27 04:05:14;;;;;;;13.00;12.30;;;17.40;99.90;;;;;;4895112;29;20236;-80
2022/06/27 04:07:41;;;;;;;13.30;12.60;;;17.40;99.90;;;;;;4884803;29;20203;-80
2022/06/27 04:10:09;;;;;;;12.90;12.20;;;17.40;99.90;;;;;;4884804;29;20210;-80
2022/06/27 04:12:36;;;;;;;12.93;12.23;;;17.50;99.90;;;;;;4878816;29;20300;-81
2022/06/27 04:15:29;;;;;;;12.80;12.10;;;17.50;99.90;;;;;;4892946;29;20210;-81
2022/06/27 04:18:15;;;;;;;13.27;12.57;;;17.50;99.90;;;;;;4895287;29;20215;-80
2022/06/27 04:21:12;;;;;;;13.23;12.53;;;17.50;99.90;;;;;;4894061;29;20285;-80
2022/06/27 04:23:46;;;;;;;13.03;12.33;;;17.60;99.90;;;;;;4884306;29;20230;-80
2022/06/27 04:26:21;;;;;;;13.33;12.63;;;17.60;99.90;;;;;;4884455;29;20207;-80
2022/06/27 04:28:48;;;;;;;13.70;13.00;;;17.60;99.90;;;;;;4884498;29;20295;-80
2022/06/27 04:31:15;;;;;;;13.50;12.70;;;17.70;99.90;;;;;;4885274;29;20227;-80
2022/06/27 04:33:44;;;;;;;13.60;12.90;;;17.80;99.90;;;;;;4884571;29;20287;-80
2022/06/27 04:36:12;;;;;;;13.10;12.30;;;17.90;99.90;;;;;;4883552;29;20200;-80
2022/06/27 04:38:39;;;;;;;13.00;12.20;;;17.90;99.90;;;;;;4884944;29;20299;-80
2022/06/27 04:41:29;;;;;;;15.40;14.60;;;18.00;99.90;;;;;;4900040;29;20229;-81
2022/06/27 04:43:56;;;;;;;13.87;13.00;;;18.10;99.90;;;;;;4885417;29;20649;-80
2022/06/27 04:46:23;;;;;;;13.40;12.70;;;18.30;99.90;;;;;;4884228;29;20200;-80
2022/06/27 04:49:17;;;;;;;13.43;12.60;;;18.40;99.90;;;;;;4884222;29;20519;-80
2022/06/27 04:51:49;;;;;;;11.90;11.17;;;18.70;99.90;;;;;;4915536;29;20720;-79
2022/06/27 04:54:18;;;;;;;13.03;12.23;;;18.90;99.90;;;;;;4877663;29;20196;-80
2022/06/27 04:56:46;;;;;;;3.80;3.50;;;19.10;99.90;;;;;;4881686;29;20295;-80
2022/06/27 04:59:13;;;;;;;4.10;3.70;;;19.20;99.90;;;;;;4885204;29;20210;-80
2022/06/27 05:01:42;;;;;;;11.97;11.07;;;19.30;99.90;;;;;;4884647;29;20203;-80
2022/06/27 05:04:13;;;;;;;11.50;10.80;;;19.40;99.90;;;;;;4886012;29;20269;-80
2022/06/27 05:06:43;;;;;;;9.67;8.90;;;19.50;99.90;;;;;;4885941;29;20257;-80
2022/06/27 05:09:11;;;;;;;6.10;5.50;;;19.60;99.90;;;;;;4892783;29;20204;-80
2022/06/27 05:11:38;;;;;;;11.30;10.50;;;19.90;99.90;;;;;;4884973;29;20209;-80
2022/06/27 05:14:05;;;;;;;10.17;9.47;;;20.00;99.90;;;;;;4883085;29;20223;-80
2022/06/27 05:16:52;;;;;;;10.00;9.30;;;20.20;99.90;;;;;;4897606;29;20290;-80
2022/06/27 05:19:23;;;;;;;8.73;8.13;;;20.50;99.90;;;;;;4883302;29;20589;-80
2022/06/27 05:21:51;;;;;;;4.93;4.63;;;20.80;99.90;;;;;;4883028;29;20207;-80
2022/06/27 05:24:20;;;;;;;8.83;8.33;;;21.10;99.90;;;;;;4883137;29;20211;-80
2022/06/27 05:26:48;;;;;;;11.73;11.03;;;21.10;99.90;;;;;;4882602;29;20211;-80
2022/06/27 05:29:16;;;;;;;11.53;10.83;;;20.90;99.90;;;;;;4883155;29;20201;-80
2022/06/27 05:31:43;;;;;;;8.60;8.00;;;20.80;99.90;;;;;;4883168;29;20671;-80
2022/06/27 05:34:10;;;;;;;8.73;8.03;;;20.70;99.90;;;;;;4890941;29;20201;-80
2022/06/27 05:36:37;;;;;;;10.10;9.40;;;20.60;99.90;;;;;;4883402;29;20213;-80
2022/06/27 05:39:05;;;;;;;9.83;9.23;;;20.60;99.90;;;;;;4882464;29;20299;-81
2022/06/27 05:41:34;;;;;;;9.13;8.53;;;20.70;99.90;;;;;;4912834;29;20208;-80
2022/06/27 05:44:05;;;;;;;5.17;4.87;;;20.90;99.90;;;;;;4882754;29;20205;-81
2022/06/27 05:46:34;;;;;;;6.33;5.83;;;21.00;99.90;;;;;;4883843;29;20644;-81
2022/06/27 05:49:02;;;;;;;10.00;9.50;;;21.00;99.90;;;;;;4901052;29;20216;-80
2022/06/27 05:51:32;;;;;;;11.40;10.80;;;21.00;99.90;;;;;;4883552;29;20205;-80
2022/06/27 05:54:00;;;;;;;11.53;10.93;;;21.10;99.90;;;;;;4882340;29;20319;-80
2022/06/27 05:56:28;;;;;;;10.93;10.27;;;21.10;99.90;;;;;;4877660;29;20243;-80
2022/06/27 05:58:57;;;;;;;11.27;10.67;;;21.10;99.90;;;;;;4882760;29;20224;-80
2022/06/27 06:01:25;;;;;;;10.17;9.57;;;21.10;99.90;;;;;;4882808;29;20201;-80
2022/06/27 06:03:56;;;;;;;5.10;4.80;;;20.90;99.90;;;;;;4913122;29;20252;-80
2022/06/27 06:06:24;;;;;;;4.60;4.40;;;20.80;99.90;;;;;;4882350;29;20215;-80
2022/06/27 06:08:54;;;;;;;4.60;4.20;;;20.80;99.90;;;;;;4882068;29;20211;-80
2022/06/27 06:11:21;;;;;;;4.20;4.00;;;20.60;99.90;;;;;;4908313;29;20235;-80
2022/06/27 06:13:48;;;;;;;12.63;11.93;;;20.40;99.90;;;;;;4913468;29;20232;-80
2022/06/27 06:16:19;;;;;;;11.47;10.77;;;20.40;99.90;;;;;;4881734;29;20211;-80
2022/06/27 06:18:50;;;;;;;10.70;10.10;;;20.40;99.90;;;;;;4881715;29;20264;-80
2022/06/27 06:21:17;;;;;;;9.40;8.80;;;20.70;99.90;;;;;;4877841;29;20218;-80
2022/06/27 06:23:44;;;;;;;8.30;7.73;;;21.10;99.90;;;;;;4881768;29;20221;-80
2022/06/27 06:26:14;;;;;;;5.60;5.00;;;21.70;99.90;;;;;;4882292;29;20196;-80
2022/06/27 06:28:41;;;;;;;3.70;3.40;;;22.20;99.90;;;;;;4882492;29;20249;-80
2022/06/27 06:31:08;;;;;;;9.20;8.60;;;22.70;99.90;;;;;;4881774;29;20674;-80
2022/06/27 06:33:38;;;;;;;9.93;9.43;;;22.40;99.90;;;;;;4883858;29;20244;-80
2022/06/27 06:36:07;;;;;;;6.40;6.00;;;22.20;99.90;;;;;;4881947;29;20196;-80
2022/06/27 06:38:35;;;;;;;5.47;5.07;;;22.00;99.90;;;;;;4881814;29;20219;-80
2022/06/27 06:41:02;;;;;;;4.90;4.60;;;21.90;99.90;;;;;;4881442;29;20264;-79
2022/06/27 06:43:29;;;;;;;3.73;2.77;;;21.80;99.90;;;;;;4881874;29;20311;-80
2022/06/27 06:46:12;;;;;;;3.10;2.90;;;21.50;99.90;;;;;;4882027;29;20195;-80
2022/06/27 06:48:48;;;;;;;3.07;2.97;;;21.30;99.90;;;;;;4883226;29;20212;-80
2022/06/27 06:51:16;;;;;;;2.90;2.70;;;21.10;99.90;;;;;;4881352;29;20579;-80
2022/06/27 06:53:43;;;;;;;3.07;2.83;;;21.10;99.90;;;;;;4881762;29;20235;-80
2022/06/27 06:56:10;;;;;;;6.33;5.83;;;21.10;99.90;;;;;;4899342;29;20284;-80
2022/06/27 06:58:37;;;;;;;3.20;2.90;;;21.10;99.90;;;;;;4882318;29;20683;-80
2022/06/27 07:01:05;;;;;;;3.17;2.67;;;21.20;99.90;;;;;;4899147;29;21234;-80
2022/06/27 07:03:33;;;;;;;2.93;2.73;;;21.20;99.90;;;;;;4881875;29;20232;-80
2022/06/27 07:06:02;;;;;;;5.70;5.27;;;21.20;99.90;;;;;;4875615;29;20209;-80
2022/06/27 07:08:30;;;;;;;8.33;7.63;;;21.30;99.90;;;;;;4899300;29;20204;-80
2022/06/27 07:10:57;;;;;;;3.17;2.77;;;22.00;99.90;;;;;;4899324;29;20197;-80
2022/06/27 07:13:25;;;;;;;5.87;5.47;;;23.00;99.90;;;;;;4881157;29;20223;-80
2022/06/27 07:15:51;;;;;;;7.40;6.90;;;23.70;99.90;;;;;;4881328;29;20729;-80
2022/06/27 07:18:18;;;;;;;9.90;8.93;;;24.30;99.90;;;;;;4881483;29;20252;-80
2022/06/27 07:20:45;;;;;;;4.77;4.47;;;24.60;99.90;;;;;;4898263;29;20291;-79
2022/06/27 07:23:13;;;;;;;4.27;4.07;;;24.50;99.90;;;;;;4898201;29;20291;-80
2022/06/27 07:25:40;;;;;;;2.67;2.50;;;24.40;99.90;;;;;;4881143;29;20208;-80
2022/06/27 07:28:08;;;;;;;2.50;2.40;;;24.30;99.90;;;;;;4898592;29;20454;-80
2022/06/27 07:30:36;;;;;;;2.63;2.43;;;24.60;99.90;;;;;;4898317;29;20201;-80
2022/06/27 07:33:03;;;;;;;4.50;4.10;;;25.10;99.90;;;;;;4880997;29;20626;-80
2022/06/27 07:35:30;;;;;;;10.10;9.40;;;25.60;99.90;;;;;;4897193;29;20207;-81
2022/06/27 07:37:57;;;;;;;8.73;8.20;;;26.20;99.90;;;;;;4912605;29;20291;-80
2022/06/27 07:40:25;;;;;;;9.23;8.63;;;26.80;99.90;;;;;;4898749;29;20201;-80
2022/06/27 07:42:53;;;;;;;7.53;7.00;;;26.70;99.90;;;;;;4881267;29;20603;-80
2022/06/27 07:45:21;;;;;;;8.40;7.90;;;26.10;99.90;;;;;;4898293;29;20264;-79
2022/06/27 07:47:48;;;;;;;8.77;7.90;;;25.80;99.90;;;;;;4880852;29;20300;-80
2022/06/27 07:50:36;;;;;;;8.90;8.20;;;25.60;99.90;;;;;;4880001;29;20205;-81
2022/06/27 07:53:14;;;;;;;4.20;3.80;;;25.60;99.90;;;;;;4898043;29;20220;-80
2022/06/27 07:55:43;;;;;;;8.00;7.50;;;25.60;99.90;;;;;;4880541;29;20236;-80
2022/06/27 07:58:16;;;;;;;8.60;8.00;;;25.70;99.90;;;;;;4873324;29;20295;-81
2022/06/27 08:00:44;;;;;;;7.70;7.30;;;25.50;99.90;;;;;;4898431;29;20207;-80
2022/06/27 08:05:56;;;;;;;6.30;5.90;;;25.50;99.90;;;;;;4881317;29;20228;-80
2022/06/27 08:08:24;;;;;;;5.73;5.43;;;26.00;99.90;;;;;;4897435;29;20197;-80
2022/06/27 08:10:53;;;;;;;6.30;5.93;;;26.20;99.90;;;;;;4880383;29;20551;-80
2022/06/27 08:13:20;;;;;;;6.97;6.43;;;26.40;99.90;;;;;;4896545;29;20661;-80
2022/06/27 08:15:47;;;;;;;6.77;6.37;;;26.90;99.90;;;;;;4896977;29;20205;-80
2022/06/27 08:18:14;;;;;;;8.40;7.80;;;27.40;99.90;;;;;;4897445;29;20201;-80
2022/06/27 08:20:42;;;;;;;7.70;7.23;;;27.90;99.90;;;;;;4897497;29;20208;-80
2022/06/27 08:23:09;;;;;;;9.80;9.20;;;27.90;99.90;;;;;;4897034;29;20797;-81
2022/06/27 08:25:37;;;;;;;5.70;5.23;;;27.80;99.90;;;;;;4897342;29;20208;-80
2022/06/27 08:28:06;;;;;;;8.00;7.60;;;27.50;99.90;;;;;;4897148;29;20643;-80
2022/06/27 08:30:33;;;;;;;9.20;8.60;;;27.60;99.90;;;;;;4896916;29;20211;-81
2022/06/27 08:33:01;;;;;;;8.00;7.40;;;27.80;99.90;;;;;;4911309;29;20233;-81
2022/06/27 08:35:28;;;;;;;7.93;7.33;;;27.50;99.90;;;;;;4879901;29;20197;-80
2022/06/27 08:37:58;;;;;;;8.10;7.50;;;27.20;99.90;;;;;;4899554;29;20244;-80
2022/06/27 08:40:27;;;;;;;8.30;7.60;;;27.00;99.90;;;;;;4882879;29;20208;-80
2022/06/27 08:42:55;;;;;;;6.00;5.57;;;26.70;99.90;;;;;;4882919;29;20710;-79
2022/06/27 08:45:25;;;;;;;2.40;2.17;;;26.60;99.90;;;;;;4899025;29;20272;-79
2022/06/27 08:47:56;;;;;;;3.03;2.17;;;27.10;99.90;;;;;;4899100;29;20284;-79
2022/06/27 08:50:23;;;;;;;2.37;2.20;;;27.10;99.90;;;;;;4879963;29;20212;-80
2022/06/27 08:52:51;;;;;;;4.00;3.80;;;26.80;99.90;;;;;;4881750;29;20239;-79
2022/06/27 08:55:18;;;;;;;6.20;5.90;;;26.60;99.90;;;;;;4898686;29;20205;-79
2022/06/27 08:57:45;;;;;;;7.93;7.40;;;26.80;99.90;;;;;;4898925;29;20235;-80
2022/06/27 09:00:15;;;;;;;7.60;7.20;;;27.20;99.90;;;;;;4881649;29;20217;-79
2022/06/27 09:02:43;;;;;;;7.20;6.70;;;27.40;99.90;;;;;;4899499;29;20224;-81
2022/06/27 09:05:17;;;;;;;7.53;7.03;;;27.30;99.90;;;;;;4897667;29;20292;-80
2022/06/27 09:07:49;;;;;;;7.67;7.07;;;27.30;99.90;;;;;;4883084;29;20205;-81
2022/06/27 09:10:25;;;;;;;7.80;7.20;;;26.80;99.90;;;;;;4887943;29;20202;-79
2022/06/27 09:12:58;;;;;;;7.37;6.97;;;26.30;99.90;;;;;;4881882;29;20292;-80
2022/06/27 09:15:45;;;;;;;7.57;7.13;;;25.80;99.90;;;;;;4882249;29;20300;-80
2022/06/27 09:18:15;;;;;;;7.67;7.20;;;25.40;99.90;;;;;;4896070;29;20645;-80
2022/06/27 09:20:51;;;;;;;8.20;7.70;;;25.10;99.90;;;;;;4900186;29;20200;-79
2022/06/27 09:23:40;;;;;;;8.00;7.60;;;25.10;99.90;;;;;;4891599;29;20220;-79
2022/06/27 09:26:11;;;;;;;7.70;7.30;;;25.10;99.90;;;;;;4898415;29;20722;-79
2022/06/27 09:28:41;;;;;;;8.00;7.50;;;25.10;99.90;;;;;;4882219;29;20653;-80
2022/06/27 09:31:12;;;;;;;7.60;7.20;;;25.10;99.90;;;;;;4881707;29;20205;-79
2022/06/27 09:33:41;;;;;;;2.20;2.10;;;25.10;99.90;;;;;;4881605;29;20625;-80
2022/06/27 09:36:13;;;;;;;2.10;2.00;;;25.30;99.90;;;;;;4881496;29;20205;-80
2022/06/27 09:38:41;;;;;;;2.53;1.90;;;25.50;99.90;;;;;;4881641;29;20742;-80
2022/06/27 09:41:11;;;;;;;3.37;3.17;;;25.70;99.90;;;;;;4898406;29;20244;-80
2022/06/27 09:43:42;;;;;;;3.73;2.20;;;25.80;99.90;;;;;;4898291;29;20221;-81
2022/06/27 09:46:11;;;;;;;2.13;2.00;;;25.80;99.90;;;;;;4897588;29;20203;-80
2022/06/27 09:48:42;;;;;;;3.00;2.47;;;25.70;99.90;;;;;;4898007;29;20208;-80
2022/06/27 09:51:12;;;;;;;3.58;2.50;;;25.50;99.90;;;;;;4898233;29;20460;-80
2022/06/27 09:53:44;;;;;;;2.80;2.60;;;25.00;99.90;;;;;;4874742;29;20444;-80
2022/06/27 09:56:11;;;;;;;5.50;5.13;;;24.60;99.90;;;;;;4896940;29;20696;-80
2022/06/27 09:58:39;;;;;;;6.73;6.23;;;24.60;99.90;;;;;;4881154;29;20264;-80
2022/06/27 10:01:06;;;;;;;6.87;6.27;;;24.60;99.90;;;;;;4880224;29;20200;-80
2022/06/27 10:03:35;;;;;;;2.93;2.20;;;24.90;99.90;;;;;;4898230;29;20221;-81
2022/06/27 10:06:04;;;;;;;6.30;5.90;;;25.00;99.90;;;;;;4898261;29;20299;-80
2022/06/27 10:08:32;;;;;;;7.70;7.10;;;25.00;99.90;;;;;;4897402;29;20761;-80
2022/06/27 10:11:11;;;;;;;4.33;4.03;;;24.80;99.90;;;;;;4880819;29;20204;-80
2022/06/27 10:13:42;;;;;;;9.03;8.43;;;24.60;99.90;;;;;;4879868;29;20363;-80
2022/06/27 10:16:12;;;;;;;6.60;6.10;;;24.80;99.90;;;;;;4880743;29;20256;-80
2022/06/27 10:19:03;;;;;;;6.00;5.60;;;25.10;99.90;;;;;;4896839;29;20342;-80
2022/06/27 10:21:33;;;;;;;3.23;3.03;;;25.30;99.90;;;;;;4892171;29;20693;-80
2022/06/27 10:24:29;;;;;;;2.50;2.30;;;25.10;99.90;;;;;;4880499;29;20753;-81
2022/06/27 10:26:57;;;;;;;5.77;5.27;;;24.90;99.90;;;;;;4881848;29;20674;-81
2022/06/27 10:29:45;;;;;;;2.57;2.20;;;24.50;99.90;;;;;;4897501;29;20208;-80
2022/06/27 10:32:39;;;;;;;5.95;5.55;;;24.40;99.90;;;;;;4878120;29;20513;-80
2022/06/27 10:35:14;;;;;;;4.70;4.40;;;24.20;99.90;;;;;;4906345;29;20319;-80
2022/06/27 10:37:44;;;;;;;9.73;9.07;;;24.10;99.90;;;;;;4896967;29;20207;-80
2022/06/27 10:40:56;;;;;;;4.60;4.30;;;24.10;99.90;;;;;;4908029;29;20204;-80
2022/06/27 10:43:46;;;;;;;8.73;8.13;;;24.10;99.90;;;;;;4910275;29;20247;-80
2022/06/27 10:46:42;;;;;;;9.50;8.87;;;24.30;99.90;;;;;;4894814;29;20205;-80
2022/06/27 10:49:22;;;;;;;4.80;4.40;;;24.30;99.90;;;;;;4865403;29;20201;-80
2022/06/27 10:51:49;;;;;;;7.50;7.00;;;24.20;99.90;;;;;;4894922;29;20208;-80
2022/06/27 10:54:18;;;;;;;8.83;8.23;;;24.00;99.90;;;;;;4897240;29;20220;-80
2022/06/27 10:56:47;;;;;;;4.93;4.53;;;23.80;99.90;;;;;;4880078;29;20204;-80
2022/06/27 11:00:04;;;;;;;8.70;8.20;;;23.60;99.90;;;;;;4880505;29;20632;-83
2022/06/27 11:02:33;;;;;;;8.60;8.10;;;23.30;99.90;;;;;;4859658;29;20319;-83
2022/06/27 11:05:00;;;;;;;9.10;8.50;;;23.00;99.90;;;;;;4914542;29;20208;-81
2022/06/27 11:07:28;;;;;;;8.77;8.17;;;22.80;99.90;;;;;;4899917;29;20204;-81
2022/06/27 11:09:56;;;;;;;8.70;8.20;;;22.60;99.90;;;;;;4880028;29;20213;-82
2022/06/27 11:12:30;;;;;;;8.63;8.13;;;22.40;99.90;;;;;;4894018;29;20220;-83
2022/06/27 11:14:58;;;;;;;8.80;8.30;;;22.30;99.90;;;;;;4899391;29;20209;-81
2022/06/27 11:17:39;;;;;;;9.00;8.40;;;22.30;99.90;;;;;;4883228;29;20671;-79
2022/06/27 11:20:22;;;;;;;9.00;8.40;;;22.30;99.90;;;;;;4897171;29;20256;-79
2022/06/27 11:22:52;;;;;;;8.57;8.07;;;22.20;99.90;;;;;;4897003;29;20225;-79
2022/06/27 11:25:24;;;;;;;8.70;8.20;;;22.20;99.90;;;;;;4896963;29;20192;-79
2022/06/27 11:27:54;;;;;;;8.47;7.97;;;22.20;99.90;;;;;;4898073;29;20267;-80
2022/06/27 11:33:27;;;;;;;8.73;8.13;;;22.30;99.90;;;;;;4884856;29;20227;-79
2022/06/27 11:35:55;;;;;;;8.90;8.20;;;22.30;99.90;;;;;;4892743;29;20215;-79
2022/06/27 11:38:29;;;;;;;8.70;8.20;;;22.30;99.90;;;;;;4907537;29;20206;-79
2022/06/27 11:41:09;;;;;;;8.60;8.10;;;22.30;99.90;;;;;;4908863;29;20173;-79
2022/06/27 11:43:56;;;;;;;9.20;8.53;;;22.30;99.90;;;;;;4903551;29;20216;-79
2022/06/27 11:46:31;;;;;;;8.60;8.10;;;22.20;99.90;;;;;;4895069;29;20232;-79
2022/06/27 11:49:01;;;;;;;8.83;8.33;;;22.20;99.90;;;;;;4879674;29;20625;-79
2022/06/27 11:51:31;;;;;;;9.53;8.80;;;22.10;99.90;;;;;;4896460;29;20211;-79
2022/06/27 11:54:02;;;;;;;8.83;8.33;;;22.10;99.90;;;;;;4896176;29;20220;-79
2022/06/27 11:56:32;;;;;;;9.00;8.30;;;22.10;99.90;;;;;;4896841;29;20207;-79
2022/06/27 11:59:00;;;;;;;9.17;8.57;;;22.00;99.90;;;;;;4896867;29;20678;-79
2022/06/27 12:01:27;;;;;;;9.30;8.70;;;22.00;99.90;;;;;;4910815;29;20205;-79
2022/06/27 12:04:10;;;;;;;9.17;8.57;;;22.10;99.90;;;;;;4896096;29;20216;-79
2022/06/27 12:06:45;;;;;;;9.60;9.00;;;22.00;99.90;;;;;;4879476;29;20260;-79
2022/06/27 12:09:12;;;;;;;8.27;7.77;;;22.20;99.90;;;;;;4893510;29;20666;-79
2022/06/27 12:11:48;;;;;;;7.90;7.40;;;22.30;99.90;;;;;;4902034;29;20209;-79
2022/06/27 12:14:15;;;;;;;3.70;3.50;;;22.40;99.90;;;;;;4898140;29;20272;-79
2022/06/27 12:16:47;;;;;;;2.43;2.27;;;22.60;99.90;;;;;;4899762;29;20622;-79
2022/06/27 12:19:14;;;;;;;2.60;2.40;;;22.60;99.90;;;;;;4892201;29;20208;-79
2022/06/27 12:21:42;;;;;;;7.50;7.00;;;22.60;99.90;;;;;;4899606;29;20580;-79
2022/06/27 12:24:09;;;;;;;8.80;8.30;;;22.50;99.90;;;;;;4882458;29;20644;-79
2022/06/27 12:26:36;;;;;;;8.30;7.80;;;22.50;99.90;;;;;;4883357;29;20220;-79
2022/06/27 12:29:05;;;;;;;8.30;7.80;;;22.60;99.90;;;;;;4899564;29;20256;-79
2022/06/27 12:31:32;;;;;;;8.40;7.77;;;22.50;99.90;;;;;;4882614;29;20212;-79
2022/06/27 12:33:59;;;;;;;7.93;7.47;;;22.30;99.90;;;;;;4882271;29;20232;-79
2022/06/27 12:36:26;;;;;;;9.10;8.60;;;22.10;99.90;;;;;;4914001;29;20200;-79
2022/06/27 12:38:53;;;;;;;3.53;3.23;;;22.20;99.90;;;;;;4899543;29;20200;-79
2022/06/27 12:41:20;;;;;;;5.60;5.20;;;22.00;99.90;;;;;;4899237;29;20606;-79
2022/06/27 12:43:48;;;;;;;9.53;8.93;;;22.00;99.90;;;;;;4913168;29;20638;-78
2022/06/27 12:46:17;;;;;;;8.10;7.50;;;21.80;99.90;;;;;;4892524;29;20670;-79
2022/06/27 12:48:45;;;;;;;9.70;9.10;;;21.80;99.90;;;;;;4899481;29;20212;-79
2022/06/27 12:51:12;;;;;;;9.87;9.17;;;21.70;99.90;;;;;;4879789;29;20212;-79
2022/06/27 12:53:38;;;;;;;9.70;9.00;;;21.60;99.90;;;;;;4883219;29;20647;-79
2022/06/27 12:56:06;;;;;;;9.33;8.73;;;21.40;99.90;;;;;;4881980;29;20228;-78
2022/06/27 12:58:34;;;;;;;9.33;8.77;;;21.40;99.90;;;;;;4882177;29;20213;-79
2022/06/27 13:01:01;;;;;;;9.10;8.50;;;21.50;99.90;;;;;;4913698;29;20208;-79
2022/06/27 13:03:29;;;;;;;8.47;7.97;;;21.50;99.90;;;;;;4881932;29;20229;-79